Time;durP1;ratioP1;P1;durP2;ratioP2;P2;SDS_P1;SDS_P2;PMS_P1;PMS_P2;Temp;Humidity;BMP_temperature;BMP_pressure;BME280_temperature;BME280_humidity;BME280_pressure;Samples;Min_cycle;Max_cycle;Signal;HPM_P1;HPM_P2
2022/10/25 00:01:23;;;;;;;5.67;1.90;;;12.70;94.20;;;;;;5029689;28;20429;-71
2022/10/25 00:03:48;;;;;;;3.87;2.27;;;12.70;94.20;;;;;;5046456;28;20519;-71
2022/10/25 00:06:14;;;;;;;5.00;1.87;;;12.70;94.30;;;;;;5031086;28;21016;-73
2022/10/25 00:08:40;;;;;;;4.73;1.80;;;12.60;94.40;;;;;;5026807;28;20828;-70
2022/10/25 00:11:07;;;;;;;2.20;2.00;;;12.60;94.50;;;;;;5028963;28;20272;-71
2022/10/25 00:13:33;;;;;;;3.37;1.93;;;12.60;94.70;;;;;;5028575;28;20996;-72
2022/10/25 00:15:59;;;;;;;3.73;2.20;;;12.50;94.80;;;;;;5032320;28;20467;-71
2022/10/25 00:18:25;;;;;;;7.27;2.20;;;12.50;94.90;;;;;;5025831;28;20475;-70
2022/10/25 00:20:50;;;;;;;2.83;1.97;;;12.40;95.00;;;;;;5031354;28;20189;-70
2022/10/25 00:23:16;;;;;;;9.70;1.93;;;12.40;95.10;;;;;;5027922;28;20556;-70
2022/10/25 00:25:41;;;;;;;6.53;2.60;;;12.30;95.10;;;;;;5029110;28;20193;-70
2022/10/25 00:28:07;;;;;;;3.10;1.97;;;12.30;95.20;;;;;;5028047;28;20275;-72
2022/10/25 00:30:33;;;;;;;5.73;1.83;;;12.30;95.20;;;;;;5029015;28;20189;-72
2022/10/25 00:32:59;;;;;;;5.77;2.10;;;12.20;95.20;;;;;;5028682;28;20432;-71
2022/10/25 00:35:24;;;;;;;6.40;2.70;;;12.20;95.30;;;;;;5031109;28;20217;-72
2022/10/25 00:37:50;;;;;;;2.27;1.53;;;12.10;95.40;;;;;;5029550;28;20189;-70
2022/10/25 00:40:17;;;;;;;3.97;1.97;;;12.10;95.60;;;;;;5031935;28;20181;-70
2022/10/25 00:42:43;;;;;;;8.27;2.73;;;12.00;95.70;;;;;;5032559;28;20456;-74
2022/10/25 00:45:18;;;;;;;5.13;2.30;;;12.00;95.80;;;;;;5032623;28;20428;-72
2022/10/25 00:47:48;;;;;;;2.20;1.80;;;12.00;95.90;;;;;;5029649;28;20192;-73
2022/10/25 00:50:19;;;;;;;4.70;2.30;;;12.00;95.90;;;;;;5032054;28;20428;-72
2022/10/25 00:52:47;;;;;;;3.10;1.80;;;12.00;96.00;;;;;;5030112;28;20455;-72
2022/10/25 00:55:17;;;;;;;2.80;2.13;;;12.00;96.00;;;;;;5031460;28;20483;-72
2022/10/25 00:57:52;;;;;;;3.27;1.80;;;12.00;96.00;;;;;;5029744;28;20416;-71
2022/10/25 01:00:18;;;;;;;6.13;1.90;;;12.10;95.90;;;;;;5031277;28;20499;-73
2022/10/25 01:02:44;;;;;;;3.80;1.80;;;12.10;95.80;;;;;;5031026;28;20515;-73
2022/10/25 01:05:10;;;;;;;3.10;1.97;;;12.10;95.80;;;;;;5028190;28;21266;-72
2022/10/25 01:07:36;;;;;;;4.30;1.90;;;12.00;95.70;;;;;;5028235;28;20923;-72
2022/10/25 01:10:04;;;;;;;4.03;2.13;;;12.00;95.70;;;;;;5024316;28;20815;-73
2022/10/25 01:12:29;;;;;;;4.90;2.07;;;12.00;95.70;;;;;;5029471;28;20435;-73
2022/10/25 01:14:55;;;;;;;5.40;2.17;;;11.90;95.70;;;;;;5028396;28;20476;-73
2022/10/25 01:17:27;;;;;;;5.00;2.10;;;11.90;95.70;;;;;;5032707;28;20300;-71
2022/10/25 01:20:16;;;;;;;3.70;1.97;;;11.90;95.90;;;;;;5022019;28;20569;-71
2022/10/25 01:22:55;;;;;;;2.70;2.10;;;11.80;96.00;;;;;;5029220;28;20416;-71
2022/10/25 01:25:33;;;;;;;6.13;2.60;;;11.80;96.10;;;;;;5026195;28;20513;-71
2022/10/25 01:28:16;;;;;;;6.47;1.97;;;11.80;96.20;;;;;;5028116;28;20531;-71
2022/10/25 01:30:58;;;;;;;5.20;2.30;;;11.80;96.20;;;;;;5030480;28;20428;-73
2022/10/25 01:33:31;;;;;;;3.70;2.07;;;11.90;96.20;;;;;;5034880;28;20440;-73
2022/10/25 01:36:17;;;;;;;4.77;2.47;;;11.90;96.00;;;;;;5033008;28;20471;-71
2022/10/25 01:38:54;;;;;;;7.70;2.40;;;12.00;95.90;;;;;;5025878;28;21018;-72
2022/10/25 01:41:55;;;;;;;3.90;2.10;;;11.90;95.80;;;;;;5030541;28;20430;-70
2022/10/25 01:44:54;;;;;;;8.70;2.70;;;12.00;95.90;;;;;;5030165;28;20441;-72
2022/10/25 01:47:35;;;;;;;5.40;2.20;;;12.10;95.80;;;;;;5027623;28;20543;-69
2022/10/25 01:50:09;;;;;;;4.03;1.93;;;12.20;95.50;;;;;;5025644;28;20447;-72
2022/10/25 01:52:35;;;;;;;8.13;2.43;;;12.20;95.30;;;;;;5030552;28;20442;-71
2022/10/25 01:55:01;;;;;;;6.70;2.47;;;12.20;95.30;;;;;;5030748;28;20464;-75
2022/10/25 01:58:01;;;;;;;3.47;2.23;;;12.10;95.40;;;;;;5026632;28;20239;-70
2022/10/25 02:00:29;;;;;;;7.90;2.60;;;12.10;95.40;;;;;;5027581;28;20524;-70
2022/10/25 02:03:21;;;;;;;4.23;2.43;;;12.20;95.30;;;;;;5025623;28;20424;-70
2022/10/25 02:06:05;;;;;;;9.63;2.37;;;12.20;95.30;;;;;;5030355;28;20887;-71
2022/10/25 02:08:38;;;;;;;5.73;3.27;;;12.30;95.10;;;;;;5026844;28;20468;-74
2022/10/25 02:11:27;;;;;;;5.37;2.30;;;12.40;95.00;;;;;;5023666;28;20427;-70
2022/10/25 02:14:19;;;;;;;6.23;2.67;;;12.40;94.70;;;;;;5025833;28;20436;-70
2022/10/25 02:16:55;;;;;;;8.07;2.53;;;12.40;94.50;;;;;;5029475;28;20923;-69
2022/10/25 02:19:29;;;;;;;6.10;2.50;;;12.40;94.50;;;;;;5019032;28;20471;-69
2022/10/25 02:21:58;;;;;;;3.73;2.50;;;12.30;94.60;;;;;;5022538;28;20419;-72
2022/10/25 02:24:26;;;;;;;4.93;2.17;;;12.30;94.70;;;;;;5028809;28;21927;-72
2022/10/25 02:26:53;;;;;;;6.80;2.43;;;12.30;94.70;;;;;;5026692;28;20428;-71
2022/10/25 02:29:19;;;;;;;6.13;2.27;;;12.30;94.80;;;;;;5026875;28;20840;-70
2022/10/25 02:31:45;;;;;;;3.80;2.30;;;12.30;94.80;;;;;;5026472;28;20443;-69
2022/10/25 02:34:10;;;;;;;4.80;2.90;;;12.20;94.80;;;;;;5026688;28;20905;-72
2022/10/25 02:36:36;;;;;;;5.77;3.00;;;12.30;94.80;;;;;;5028390;28;20195;-70
2022/10/25 02:39:04;;;;;;;7.03;2.33;;;12.20;94.70;;;;;;5021462;28;20233;-71
2022/10/25 02:41:30;;;;;;;4.60;2.47;;;12.30;94.70;;;;;;5025623;28;20467;-69
2022/10/25 02:43:55;;;;;;;3.27;2.13;;;12.20;94.70;;;;;;5026018;28;20956;-72
2022/10/25 02:46:22;;;;;;;6.03;2.60;;;12.20;94.80;;;;;;5025808;28;20296;-70
2022/10/25 02:48:48;;;;;;;5.47;2.90;;;12.10;95.00;;;;;;5017755;28;20241;-69
2022/10/25 02:51:15;;;;;;;6.50;2.30;;;12.10;95.20;;;;;;5025946;28;20438;-71
2022/10/25 02:53:41;;;;;;;4.10;2.47;;;12.10;95.20;;;;;;5026916;28;20429;-69
2022/10/25 02:56:06;;;;;;;5.97;2.60;;;12.10;95.20;;;;;;5027286;28;20554;-70
2022/10/25 02:58:34;;;;;;;6.20;2.10;;;12.10;95.30;;;;;;5023591;28;20819;-70
2022/10/25 03:01:00;;;;;;;5.77;2.80;;;12.10;95.30;;;;;;5026497;28;20654;-70
2022/10/25 03:03:27;;;;;;;6.67;2.67;;;12.20;95.10;;;;;;5021573;28;20428;-70
2022/10/25 03:05:53;;;;;;;5.03;2.60;;;12.30;94.90;;;;;;5025013;28;20428;-70
2022/10/25 03:08:19;;;;;;;8.07;2.90;;;12.20;94.80;;;;;;5025980;28;20550;-71
2022/10/25 03:10:44;;;;;;;5.63;2.90;;;12.20;94.90;;;;;;5022525;28;20423;-71
2022/10/25 03:13:10;;;;;;;5.80;2.50;;;12.20;95.00;;;;;;5028161;28;20424;-71
2022/10/25 03:15:36;;;;;;;5.83;2.93;;;12.20;95.00;;;;;;5027793;28;20213;-71
2022/10/25 03:18:01;;;;;;;4.37;2.60;;;12.20;95.00;;;;;;5027124;28;20316;-71
2022/10/25 03:20:27;;;;;;;5.47;2.60;;;12.10;95.10;;;;;;5027695;28;20181;-70
2022/10/25 03:22:52;;;;;;;5.80;2.30;;;12.10;95.10;;;;;;5025321;28;20190;-71
2022/10/25 03:25:18;;;;;;;5.77;2.53;;;12.20;95.10;;;;;;5029127;28;20190;-70
2022/10/25 03:27:44;;;;;;;5.90;2.93;;;12.20;94.90;;;;;;5024499;28;20257;-70
2022/10/25 03:30:12;;;;;;;5.30;2.67;;;12.20;94.80;;;;;;5025188;28;20235;-71
2022/10/25 03:32:38;;;;;;;4.03;2.80;;;12.20;94.90;;;;;;5029878;28;20231;-71
2022/10/25 03:35:04;;;;;;;4.63;2.70;;;12.10;95.00;;;;;;5027534;28;20471;-71
2022/10/25 03:37:29;;;;;;;3.27;2.40;;;12.10;95.00;;;;;;5026414;28;20264;-71
2022/10/25 03:39:55;;;;;;;8.03;3.33;;;12.20;95.10;;;;;;5022187;28;20539;-71
2022/10/25 03:42:20;;;;;;;4.30;2.80;;;12.10;95.10;;;;;;5025230;28;20204;-71
2022/10/25 03:44:46;;;;;;;5.07;2.60;;;12.10;95.10;;;;;;5029311;28;20688;-71
2022/10/25 03:47:12;;;;;;;4.97;2.37;;;12.10;95.20;;;;;;5029021;28;20185;-70
2022/10/25 03:49:37;;;;;;;11.37;2.57;;;12.00;95.30;;;;;;5024162;28;20304;-72
2022/10/25 03:52:05;;;;;;;5.37;2.80;;;12.00;95.30;;;;;;5027646;28;20189;-72
2022/10/25 03:54:31;;;;;;;6.20;3.00;;;12.00;95.30;;;;;;5027113;28;20671;-70
2022/10/25 03:56:56;;;;;;;4.20;2.20;;;12.00;95.30;;;;;;5032859;28;20459;-70
2022/10/25 03:59:22;;;;;;;6.80;3.00;;;12.00;95.30;;;;;;5020727;28;20229;-72
2022/10/25 04:01:47;;;;;;;4.40;2.50;;;12.00;95.30;;;;;;5031545;28;20192;-71
2022/10/25 04:04:13;;;;;;;3.80;2.37;;;12.00;95.30;;;;;;5032968;28;20181;-70
2022/10/25 04:06:38;;;;;;;6.40;2.80;;;12.10;95.30;;;;;;5031164;28;20192;-72
2022/10/25 04:09:04;;;;;;;4.83;3.23;;;12.00;95.30;;;;;;5029493;28;20216;-72
2022/10/25 04:11:30;;;;;;;4.30;2.60;;;12.00;95.30;;;;;;5029614;28;20242;-72
2022/10/25 04:13:55;;;;;;;10.10;3.30;;;12.00;95.40;;;;;;5030757;28;20187;-72
2022/10/25 04:16:22;;;;;;;6.60;3.00;;;12.00;95.40;;;;;;5030341;28;20905;-70
2022/10/25 04:18:49;;;;;;;3.60;2.60;;;12.00;95.30;;;;;;5027897;28;20205;-72
2022/10/25 04:21:14;;;;;;;5.17;2.60;;;12.00;95.30;;;;;;5032003;28;20466;-71
2022/10/25 04:23:40;;;;;;;4.67;2.90;;;12.00;95.50;;;;;;5028261;28;20456;-71
2022/10/25 04:26:06;;;;;;;5.13;2.40;;;12.00;95.50;;;;;;5028867;28;20664;-72
2022/10/25 04:28:31;;;;;;;7.47;3.30;;;12.00;95.40;;;;;;5028633;28;20288;-71
2022/10/25 04:30:57;;;;;;;6.03;3.07;;;12.00;95.50;;;;;;5030196;28;20220;-72
2022/10/25 04:33:22;;;;;;;4.57;2.73;;;12.00;95.60;;;;;;5029434;28;20184;-72
2022/10/25 04:35:55;;;;;;;5.77;2.87;;;12.00;95.60;;;;;;5030426;28;20217;-72
2022/10/25 04:38:25;;;;;;;8.33;2.60;;;12.00;95.60;;;;;;5024298;28;20202;-72
2022/10/25 04:40:55;;;;;;;7.27;2.57;;;12.00;95.60;;;;;;5029410;28;20497;-72
2022/10/25 04:43:21;;;;;;;6.57;2.90;;;11.90;95.70;;;;;;5029849;28;20454;-71
2022/10/25 04:45:47;;;;;;;5.23;2.63;;;11.90;95.70;;;;;;5030583;28;20428;-72
2022/10/25 04:48:13;;;;;;;8.23;3.03;;;11.90;95.70;;;;;;5024434;28;20237;-72
2022/10/25 04:50:38;;;;;;;5.20;2.70;;;11.90;95.70;;;;;;5028409;28;20428;-72
2022/10/25 04:53:05;;;;;;;5.10;2.53;;;11.90;95.80;;;;;;5028057;28;20436;-72
2022/10/25 04:55:31;;;;;;;7.13;2.83;;;11.90;95.80;;;;;;5029528;28;20235;-71
2022/10/25 04:57:56;;;;;;;9.40;3.47;;;11.90;95.80;;;;;;5027626;28;20443;-72
2022/10/25 05:00:23;;;;;;;6.80;2.80;;;11.90;95.70;;;;;;5025312;28;20424;-71
2022/10/25 05:02:55;;;;;;;6.80;3.10;;;11.90;95.80;;;;;;5027059;28;20185;-72
2022/10/25 05:05:23;;;;;;;7.90;3.50;;;11.90;95.80;;;;;;5028711;28;20440;-71
2022/10/25 05:07:48;;;;;;;5.80;3.07;;;11.90;95.90;;;;;;5026549;28;20971;-72
2022/10/25 05:10:14;;;;;;;6.37;2.83;;;11.90;95.70;;;;;;5032699;28;20424;-72
2022/10/25 05:12:40;;;;;;;7.53;2.60;;;11.90;95.80;;;;;;5043795;28;20186;-71
2022/10/25 05:15:06;;;;;;;3.60;2.83;;;11.90;95.70;;;;;;5039258;28;20205;-70
2022/10/25 05:17:32;;;;;;;6.50;3.20;;;11.90;95.70;;;;;;5031763;28;20634;-70
2022/10/25 05:19:58;;;;;;;4.73;2.63;;;12.00;95.70;;;;;;5028068;28;20543;-70
2022/10/25 05:22:24;;;;;;;5.80;3.10;;;12.00;95.60;;;;;;5033962;28;20250;-69
2022/10/25 05:24:53;;;;;;;4.67;2.90;;;12.10;95.40;;;;;;5027165;28;20193;-70
2022/10/25 05:27:18;;;;;;;7.00;3.27;;;12.10;95.30;;;;;;5027302;28;20489;-69
2022/10/25 05:29:44;;;;;;;4.80;2.83;;;12.00;95.30;;;;;;5025888;28;20557;-68
2022/10/25 05:32:09;;;;;;;5.43;3.20;;;12.00;95.40;;;;;;5033729;28;20192;-69
2022/10/25 05:34:35;;;;;;;5.20;2.87;;;12.00;95.30;;;;;;5029864;28;20212;-70
2022/10/25 05:37:00;;;;;;;5.50;3.00;;;12.00;95.40;;;;;;5033621;28;20708;-71
2022/10/25 05:39:26;;;;;;;8.73;3.33;;;11.90;95.40;;;;;;5028090;28;20216;-71
2022/10/25 05:41:52;;;;;;;7.63;3.30;;;11.90;95.50;;;;;;5030873;28;20558;-71
2022/10/25 05:44:17;;;;;;;6.47;3.03;;;11.90;95.60;;;;;;5032039;28;20216;-71
2022/10/25 05:46:43;;;;;;;8.43;3.83;;;11.90;95.70;;;;;;5033079;28;20197;-69
2022/10/25 05:49:10;;;;;;;11.97;3.73;;;11.90;95.60;;;;;;5039056;28;20209;-71
2022/10/25 05:51:35;;;;;;;5.47;3.00;;;11.90;95.50;;;;;;5040995;28;20428;-69
2022/10/25 05:54:05;;;;;;;6.93;2.90;;;11.90;95.60;;;;;;5034130;28;20423;-69
2022/10/25 05:56:34;;;;;;;4.63;3.33;;;11.90;95.50;;;;;;5033127;28;20197;-71
2022/10/25 05:59:14;;;;;;;9.27;3.13;;;11.90;95.50;;;;;;5031129;28;20459;-71
2022/10/25 06:01:45;;;;;;;12.57;4.20;;;11.80;95.60;;;;;;5035767;28;20466;-68
2022/10/25 06:04:11;;;;;;;4.30;3.43;;;11.80;95.60;;;;;;5036522;28;20504;-70
2022/10/25 06:06:38;;;;;;;7.60;3.37;;;11.80;95.60;;;;;;5036745;28;20412;-70
2022/10/25 06:09:05;;;;;;;7.37;3.60;;;11.80;95.60;;;;;;5033303;28;20549;-70
2022/10/25 06:11:32;;;;;;;13.10;3.80;;;11.80;95.60;;;;;;5029961;28;20511;-69
2022/10/25 06:13:57;;;;;;;5.40;3.23;;;11.80;95.60;;;;;;5035307;28;20435;-70
2022/10/25 06:16:23;;;;;;;6.40;3.10;;;11.80;95.50;;;;;;5035218;28;20467;-69
2022/10/25 06:18:49;;;;;;;10.20;3.07;;;11.90;95.40;;;;;;5033196;28;20305;-69
2022/10/25 06:21:17;;;;;;;9.80;3.27;;;11.90;95.30;;;;;;5035831;28;20535;-70
2022/10/25 06:23:45;;;;;;;6.43;3.43;;;11.90;95.30;;;;;;5033645;28;20510;-70
2022/10/25 06:26:13;;;;;;;8.47;3.53;;;11.90;95.40;;;;;;5034749;28;20507;-71
2022/10/25 06:28:39;;;;;;;8.63;3.70;;;11.90;95.40;;;;;;5028102;28;20472;-71
2022/10/25 06:31:10;;;;;;;4.70;3.10;;;12.00;95.30;;;;;;5029338;28;20544;-71
2022/10/25 06:33:36;;;;;;;7.13;3.10;;;12.00;95.20;;;;;;5034000;28;20439;-69
2022/10/25 06:36:03;;;;;;;16.53;3.67;;;12.00;95.10;;;;;;5031469;28;20559;-70
2022/10/25 06:38:29;;;;;;;10.57;3.47;;;12.00;95.10;;;;;;5030530;28;20723;-70
2022/10/25 06:40:59;;;;;;;4.60;2.67;;;12.00;95.10;;;;;;5034493;28;20424;-71
2022/10/25 06:43:25;;;;;;;11.63;3.77;;;12.10;95.00;;;;;;5030804;28;20247;-71
2022/10/25 06:45:51;;;;;;;7.90;3.60;;;12.00;94.90;;;;;;5030730;28;20428;-70
2022/10/25 06:48:17;;;;;;;7.60;3.00;;;12.10;94.90;;;;;;5027102;28;20480;-70
2022/10/25 06:50:42;;;;;;;6.43;3.03;;;12.10;94.90;;;;;;5027451;28;20200;-70
2022/10/25 06:53:08;;;;;;;7.87;3.40;;;12.20;94.60;;;;;;5029665;28;20185;-70
2022/10/25 06:55:33;;;;;;;4.47;2.70;;;12.20;94.50;;;;;;5025449;28;20213;-70
2022/10/25 06:57:59;;;;;;;8.10;3.10;;;12.20;94.40;;;;;;5026747;28;20201;-71
2022/10/25 07:00:25;;;;;;;7.90;3.33;;;12.30;94.20;;;;;;5027734;28;20193;-71
2022/10/25 07:02:58;;;;;;;11.50;2.97;;;12.30;94.10;;;;;;5029074;28;20189;-70
2022/10/25 07:05:24;;;;;;;4.40;3.27;;;12.40;94.00;;;;;;5028492;28;20196;-70
2022/10/25 07:07:50;;;;;;;6.73;2.53;;;12.40;93.80;;;;;;5027804;28;20432;-68
2022/10/25 07:10:16;;;;;;;9.93;3.40;;;12.50;93.60;;;;;;5028193;28;20416;-71
2022/10/25 07:12:41;;;;;;;3.90;2.50;;;12.50;93.40;;;;;;5033020;28;20189;-71
2022/10/25 07:15:07;;;;;;;6.33;2.80;;;12.60;93.20;;;;;;5034282;28;21110;-71
2022/10/25 07:17:33;;;;;;;7.87;2.63;;;12.70;92.80;;;;;;5030153;28;20543;-70
2022/10/25 07:19:58;;;;;;;6.30;2.80;;;12.70;92.60;;;;;;5023622;28;20490;-71
2022/10/25 07:22:24;;;;;;;5.03;2.07;;;12.80;92.40;;;;;;5028978;28;20177;-71
2022/10/25 07:24:50;;;;;;;4.43;2.53;;;12.80;92.30;;;;;;5028130;28;20605;-70
2022/10/25 07:27:16;;;;;;;5.30;2.30;;;12.80;92.30;;;;;;5029365;28;20188;-69
2022/10/25 07:29:41;;;;;;;4.50;2.50;;;12.90;92.20;;;;;;5026056;28;20712;-70
2022/10/25 07:32:08;;;;;;;4.77;2.33;;;13.00;92.00;;;;;;5033198;28;20234;-70
2022/10/25 07:34:33;;;;;;;10.63;3.00;;;13.00;91.90;;;;;;5032711;28;20217;-70
2022/10/25 07:36:59;;;;;;;3.73;2.13;;;13.10;91.80;;;;;;5033426;28;20431;-70
2022/10/25 07:39:24;;;;;;;5.43;2.30;;;13.10;91.80;;;;;;5025855;28;20673;-70
2022/10/25 07:41:50;;;;;;;6.83;2.77;;;13.20;91.60;;;;;;5032756;28;20725;-70
2022/10/25 07:44:16;;;;;;;3.60;2.07;;;13.20;91.50;;;;;;5031670;28;20264;-70
2022/10/25 07:46:41;;;;;;;7.30;2.07;;;13.30;91.40;;;;;;5032646;28;20279;-70
2022/10/25 07:49:07;;;;;;;5.63;2.30;;;13.30;91.40;;;;;;5022641;28;20552;-70
2022/10/25 07:51:33;;;;;;;3.23;2.07;;;13.30;91.40;;;;;;5031331;28;20668;-70
2022/10/25 07:53:58;;;;;;;5.50;2.27;;;13.40;91.40;;;;;;5028350;28;20189;-70
2022/10/25 07:56:24;;;;;;;6.60;2.20;;;13.60;90.80;;;;;;5032175;28;20215;-71
2022/10/25 07:58:51;;;;;;;5.63;2.50;;;13.60;90.70;;;;;;5028023;28;20358;-70
2022/10/25 08:01:20;;;;;;;4.20;2.60;;;13.60;90.60;;;;;;5032951;28;20264;-70
2022/10/25 08:03:45;;;;;;;5.67;2.07;;;13.70;90.40;;;;;;5032687;28;20411;-71
2022/10/25 08:06:11;;;;;;;4.80;2.30;;;13.80;89.70;;;;;;5032719;28;20785;-70
2022/10/25 08:08:36;;;;;;;5.43;2.40;;;13.90;89.70;;;;;;5035368;28;20220;-70
2022/10/25 08:11:06;;;;;;;4.93;2.37;;;14.00;89.50;;;;;;5036506;28;20185;-70
2022/10/25 08:13:33;;;;;;;6.53;2.30;;;14.00;89.00;;;;;;5034819;28;20281;-69
2022/10/25 08:15:59;;;;;;;6.50;2.27;;;14.00;89.20;;;;;;5033624;28;20498;-70
2022/10/25 08:18:25;;;;;;;4.57;2.27;;;14.00;89.00;;;;;;5031751;28;20455;-70
2022/10/25 08:20:50;;;;;;;3.57;2.17;;;14.10;88.70;;;;;;5033460;28;20181;-71
2022/10/25 08:23:16;;;;;;;4.27;2.03;;;14.20;88.60;;;;;;5030993;28;20451;-70
2022/10/25 08:25:41;;;;;;;8.17;2.70;;;14.30;88.30;;;;;;5034161;28;20185;-70
2022/10/25 08:28:07;;;;;;;7.50;2.70;;;14.30;87.80;;;;;;5027245;28;20213;-69
2022/10/25 08:30:33;;;;;;;3.90;2.23;;;14.40;87.80;;;;;;5029700;28;20480;-69
2022/10/25 08:32:59;;;;;;;6.57;2.50;;;14.40;87.80;;;;;;5032367;28;20570;-70
2022/10/25 08:35:24;;;;;;;7.67;3.07;;;14.40;87.70;;;;;;5032220;28;20478;-69
2022/10/25 08:37:50;;;;;;;6.10;2.33;;;14.50;87.60;;;;;;5031315;28;20202;-70
2022/10/25 08:40:19;;;;;;;4.00;2.70;;;14.50;87.40;;;;;;5039222;28;20280;-69
2022/10/25 08:43:06;;;;;;;5.33;2.17;;;14.60;87.30;;;;;;5031686;28;20225;-70
2022/10/25 08:45:39;;;;;;;3.90;2.13;;;14.60;87.30;;;;;;5032415;28;20515;-70
2022/10/25 08:48:13;;;;;;;10.53;2.73;;;14.70;86.80;;;;;;5028076;28;20476;-71
2022/10/25 08:50:45;;;;;;;4.50;2.53;;;14.80;86.80;;;;;;5030184;28;20420;-69
2022/10/25 08:53:24;;;;;;;7.77;2.63;;;14.80;86.80;;;;;;5031806;28;20435;-70
2022/10/25 08:55:50;;;;;;;5.37;2.63;;;14.90;86.80;;;;;;5030659;28;20467;-70
2022/10/25 08:58:27;;;;;;;5.60;3.03;;;15.00;86.90;;;;;;5026214;28;20506;-71
2022/10/25 09:00:55;;;;;;;3.63;1.80;;;15.10;86.60;;;;;;5024266;28;20427;-70
2022/10/25 09:03:24;;;;;;;9.43;2.40;;;15.20;86.50;;;;;;5029698;28;20482;-72
2022/10/25 09:05:55;;;;;;;7.83;2.60;;;15.30;85.70;;;;;;5022255;28;20422;-70
2022/10/25 09:08:30;;;;;;;4.80;2.80;;;15.40;85.90;;;;;;5028006;28;20467;-70
2022/10/25 09:11:13;;;;;;;7.53;2.53;;;15.50;85.50;;;;;;5028766;28;20508;-70
2022/10/25 09:13:48;;;;;;;3.70;2.50;;;15.60;84.70;;;;;;5031354;28;20514;-69
2022/10/25 09:16:41;;;;;;;5.37;2.57;;;15.80;83.80;;;;;;5027833;28;20817;-70
2022/10/25 09:19:17;;;;;;;4.40;2.10;;;15.90;83.40;;;;;;5022304;28;20853;-70
2022/10/25 09:21:57;;;;;;;7.60;2.80;;;16.00;83.30;;;;;;5033851;28;21417;-70
2022/10/25 09:24:54;;;;;;;5.60;2.00;;;16.00;83.00;;;;;;5027616;28;20521;-70
2022/10/25 09:27:34;;;;;;;5.73;2.20;;;16.10;82.80;;;;;;5031705;28;20541;-70
2022/10/25 09:30:07;;;;;;;7.27;2.50;;;16.20;82.50;;;;;;5029971;28;20465;-70
2022/10/25 09:32:33;;;;;;;5.43;1.83;;;16.20;82.20;;;;;;5035482;28;20443;-70
2022/10/25 09:35:00;;;;;;;4.00;1.80;;;16.20;82.10;;;;;;5032309;28;20502;-71
2022/10/25 09:37:41;;;;;;;4.03;1.67;;;16.30;81.80;;;;;;5031225;28;20197;-71
2022/10/25 09:40:18;;;;;;;3.50;1.90;;;16.40;80.80;;;;;;5027761;28;20974;-71
2022/10/25 09:43:13;;;;;;;4.00;2.00;;;16.40;81.20;;;;;;5029944;28;20515;-70
2022/10/25 09:45:50;;;;;;;7.97;2.23;;;16.50;80.90;;;;;;5030824;28;20422;-70
2022/10/25 09:48:35;;;;;;;4.07;2.10;;;16.50;80.50;;;;;;5028380;28;20463;-71
2022/10/25 09:51:17;;;;;;;4.10;1.60;;;16.50;80.20;;;;;;5029666;28;20427;-70
2022/10/25 09:53:45;;;;;;;3.73;1.60;;;16.50;79.70;;;;;;5027659;28;20433;-70
2022/10/25 09:56:11;;;;;;;7.33;1.80;;;16.60;80.00;;;;;;5031347;28;20478;-70
2022/10/25 09:58:41;;;;;;;3.40;1.70;;;16.60;79.20;;;;;;5025598;28;20474;-70
2022/10/25 10:01:21;;;;;;;2.43;1.47;;;16.60;78.70;;;;;;5035314;28;20511;-70
2022/10/25 10:03:47;;;;;;;4.20;1.80;;;16.70;77.70;;;;;;5035072;28;20774;-69
2022/10/25 10:06:24;;;;;;;6.60;1.70;;;16.80;78.00;;;;;;5030610;28;20427;-69
2022/10/25 10:08:58;;;;;;;4.70;1.90;;;16.70;78.10;;;;;;5026047;28;20217;-69
2022/10/25 10:11:25;;;;;;;4.00;1.63;;;16.80;78.00;;;;;;5025542;28;21041;-70
2022/10/25 10:14:05;;;;;;;4.73;1.77;;;16.90;77.80;;;;;;5030447;28;20990;-71
2022/10/25 10:16:46;;;;;;;3.93;1.93;;;17.10;77.10;;;;;;5024671;28;20993;-69
2022/10/25 10:19:22;;;;;;;5.40;2.17;;;17.40;75.90;;;;;;5023615;28;20459;-70
2022/10/25 10:21:54;;;;;;;5.50;1.83;;;17.70;74.90;;;;;;5030091;28;20486;-70
2022/10/25 10:24:29;;;;;;;5.03;1.80;;;17.90;74.20;;;;;;5030217;28;20416;-72
2022/10/25 10:26:58;;;;;;;3.67;1.47;;;18.20;73.70;;;;;;5028958;28;20651;-70
2022/10/25 10:29:29;;;;;;;4.07;1.90;;;18.50;72.60;;;;;;5023671;28;20461;-69
2022/10/25 10:32:00;;;;;;;6.67;1.80;;;18.80;71.60;;;;;;5029763;28;20414;-70
2022/10/25 10:34:37;;;;;;;13.73;2.17;;;18.80;71.30;;;;;;5028786;28;20458;-70
2022/10/25 10:37:31;;;;;;;2.37;1.70;;;18.90;70.10;;;;;;5029929;28;20423;-71
2022/10/25 10:39:56;;;;;;;4.57;1.87;;;19.00;70.50;;;;;;5024307;28;20463;-71
2022/10/25 10:42:32;;;;;;;7.93;1.70;;;19.00;70.20;;;;;;5029023;28;20460;-70
2022/10/25 10:45:11;;;;;;;3.07;2.03;;;18.90;70.70;;;;;;5024592;28;20241;-69
2022/10/25 10:47:48;;;;;;;5.70;1.60;;;19.10;70.20;;;;;;5029614;28;20779;-70
2022/10/25 10:50:23;;;;;;;6.40;2.17;;;19.00;69.80;;;;;;5024976;28;20436;-70
2022/10/25 10:53:05;;;;;;;4.60;1.80;;;19.20;71.10;;;;;;5029676;28;20428;-70
2022/10/25 10:55:32;;;;;;;5.77;1.80;;;19.60;69.90;;;;;;5025616;28;20459;-71
2022/10/25 10:58:15;;;;;;;2.60;1.50;;;19.80;69.20;;;;;;5026632;28;20465;-70
2022/10/25 11:01:00;;;;;;;3.67;1.63;;;20.20;68.20;;;;;;5038695;28;20429;-72
2022/10/25 11:03:40;;;;;;;5.20;1.70;;;20.60;67.30;;;;;;5035852;28;20425;-70
2022/10/25 11:06:06;;;;;;;5.00;1.70;;;20.50;67.00;;;;;;5036235;28;20497;-71
2022/10/25 11:08:32;;;;;;;3.63;1.80;;;20.70;66.70;;;;;;5033305;28;20465;-71
2022/10/25 11:11:19;;;;;;;4.10;1.80;;;20.80;66.70;;;;;;5035919;28;20271;-70
2022/10/25 11:13:57;;;;;;;7.10;1.90;;;20.50;67.20;;;;;;5030165;28;20179;-71
2022/10/25 11:16:42;;;;;;;5.27;1.70;;;20.60;67.20;;;;;;5035489;28;20477;-70
2022/10/25 11:19:32;;;;;;;3.40;2.10;;;20.90;66.30;;;;;;5027760;28;20462;-71
2022/10/25 11:22:15;;;;;;;3.40;1.70;;;21.30;65.70;;;;;;5036375;28;20783;-69
2022/10/25 11:24:59;;;;;;;3.20;1.43;;;21.60;63.90;;;;;;5033919;28;20494;-70
2022/10/25 11:27:49;;;;;;;3.77;1.60;;;21.50;64.10;;;;;;5039347;28;20943;-72
2022/10/25 11:30:22;;;;;;;2.40;1.77;;;21.20;63.20;;;;;;5036294;28;20470;-70
2022/10/25 11:33:22;;;;;;;2.00;1.30;;;21.20;64.40;;;;;;5039181;28;20436;-71
2022/10/25 11:36:15;;;;;;;3.60;2.13;;;21.40;63.80;;;;;;5033897;28;20993;-70
2022/10/25 11:38:57;;;;;;;7.43;2.00;;;21.20;63.70;;;;;;5028291;28;20454;-70
2022/10/25 11:41:44;;;;;;;3.73;1.43;;;21.20;63.50;;;;;;5031800;28;20429;-70
2022/10/25 11:44:41;;;;;;;2.93;1.43;;;21.20;63.40;;;;;;5028008;28;20434;-70
2022/10/25 11:47:12;;;;;;;6.40;1.70;;;21.60;62.80;;;;;;5032139;28;20431;-70
2022/10/25 11:49:41;;;;;;;5.70;1.40;;;21.90;62.00;;;;;;5028618;28;20952;-69
2022/10/25 11:52:24;;;;;;;3.73;1.67;;;21.90;61.70;;;;;;5039267;28;20859;-69
2022/10/25 11:55:07;;;;;;;3.83;1.50;;;21.70;61.70;;;;;;5029508;28;20531;-69
2022/10/25 11:58:02;;;;;;;6.80;1.70;;;21.50;62.90;;;;;;5037461;28;20454;-71
2022/10/25 12:00:45;;;;;;;4.40;1.93;;;21.50;62.00;;;;;;5031372;28;20453;-71
2022/10/25 12:03:35;;;;;;;3.00;1.50;;;21.50;62.80;;;;;;5030580;28;20449;-70
2022/10/25 12:06:13;;;;;;;2.43;1.63;;;21.60;61.70;;;;;;5033525;28;20465;-70
2022/10/25 12:09:03;;;;;;;6.70;2.27;;;21.60;62.20;;;;;;5027714;28;20460;-70
2022/10/25 12:11:35;;;;;;;2.20;1.33;;;21.40;62.30;;;;;;5032775;28;20843;-70
2022/10/25 12:14:06;;;;;;;3.20;1.60;;;21.10;62.50;;;;;;5033710;28;20457;-70
2022/10/25 12:16:35;;;;;;;6.17;2.00;;;21.00;62.80;;;;;;5029617;28;21407;-70
2022/10/25 12:19:27;;;;;;;5.13;1.60;;;21.00;62.60;;;;;;5025324;28;20485;-69
2022/10/25 12:21:59;;;;;;;5.03;1.87;;;21.20;62.80;;;;;;5028936;28;20783;-70
2022/10/25 12:24:50;;;;;;;4.43;1.60;;;21.50;61.70;;;;;;5029170;28;20429;-70
2022/10/25 12:27:18;;;;;;;5.10;1.60;;;21.80;60.70;;;;;;5028737;28;20530;-70
2022/10/25 12:29:54;;;;;;;4.80;1.47;;;22.00;60.60;;;;;;5025928;28;20465;-69
2022/10/25 12:32:24;;;;;;;7.40;1.93;;;22.00;59.20;;;;;;5027643;28;20822;-70
2022/10/25 12:34:53;;;;;;;2.80;1.53;;;21.90;59.10;;;;;;5028168;28;20458;-69
2022/10/25 12:37:41;;;;;;;3.47;1.70;;;21.80;59.90;;;;;;5031667;28;20474;-70
2022/10/25 12:40:14;;;;;;;4.60;1.67;;;21.60;59.70;;;;;;5025840;28;20958;-70
2022/10/25 12:42:47;;;;;;;4.90;2.00;;;21.70;60.30;;;;;;5030048;28;20443;-70
2022/10/25 12:45:13;;;;;;;6.50;2.13;;;21.30;64.80;;;;;;5031941;28;20423;-71
2022/10/25 12:47:59;;;;;;;5.67;2.70;;;20.90;66.70;;;;;;5031052;28;20421;-71
2022/10/25 12:50:53;;;;;;;5.33;2.20;;;20.70;68.00;;;;;;5042872;28;20196;-70
2022/10/25 12:53:24;;;;;;;5.07;2.17;;;20.90;67.50;;;;;;5025686;28;20432;-71
2022/10/25 12:56:02;;;;;;;9.37;1.77;;;21.70;65.60;;;;;;5031472;28;20466;-70
2022/10/25 12:59:00;;;;;;;6.73;2.10;;;21.80;64.20;;;;;;5025857;28;20466;-70
2022/10/25 13:01:45;;;;;;;8.60;2.87;;;20.90;66.70;;;;;;4975282;28;20439;-71
2022/10/25 13:04:40;;;;;;;7.40;3.50;;;21.30;66.10;;;;;;5026373;28;20514;-71
2022/10/25 13:07:08;;;;;;;3.20;2.23;;;21.10;66.40;;;;;;5030569;28;20426;-71